sensor_id;sensor_type;location;lat;lon;timestamp;temperature;humidity
31307;DHT22;17935;51.120;13.132;2024-01-06T00:00:50;1.80;99.90
31307;DHT22;17935;51.120;13.132;2024-01-06T00:03:15;1.70;99.90
31307;DHT22;17935;51.120;13.132;2024-01-06T00:05:41;1.60;99.90
31307;DHT22;17935;51.120;13.132;2024-01-06T00:08:06;1.60;99.90
31307;DHT22;17935;51.120;13.132;2024-01-06T00:10:32;1.60;99.90
31307;DHT22;17935;51.120;13.132;2024-01-06T00:12:57;1.60;99.90
31307;DHT22;17935;51.120;13.132;2024-01-06T00:15:23;1.50;99.90
31307;DHT22;17935;51.120;13.132;2024-01-06T00:17:48;1.40;99.90
31307;DHT22;17935;51.120;13.132;2024-01-06T00:20:14;1.50;99.90
31307;DHT22;17935;51.120;13.132;2024-01-06T00:22:39;1.60;99.90
31307;DHT22;17935;51.120;13.132;2024-01-06T00:25:06;1.60;99.90
31307;DHT22;17935;51.120;13.132;2024-01-06T00:27:32;1.60;99.90
31307;DHT22;17935;51.120;13.132;2024-01-06T00:29:57;1.50;99.90
31307;DHT22;17935;51.120;13.132;2024-01-06T00:32:23;1.40;99.90
31307;DHT22;17935;51.120;13.132;2024-01-06T00:34:48;1.40;99.90
31307;DHT22;17935;51.120;13.132;2024-01-06T00:37:13;1.40;99.90
31307;DHT22;17935;51.120;13.132;2024-01-06T00:39:39;1.40;99.90
31307;DHT22;17935;51.120;13.132;2024-01-06T00:42:04;1.20;99.90
31307;DHT22;17935;51.120;13.132;2024-01-06T00:44:30;1.20;99.90
31307;DHT22;17935;51.120;13.132;2024-01-06T00:46:55;1.20;99.90
31307;DHT22;17935;51.120;13.132;2024-01-06T00:49:21;1.20;99.90
31307;DHT22;17935;51.120;13.132;2024-01-06T00:51:46;1.20;99.90
31307;DHT22;17935;51.120;13.132;2024-01-06T00:54:12;1.20;99.90
31307;DHT22;17935;51.120;13.132;2024-01-06T00:56:37;1.20;99.90
31307;DHT22;17935;51.120;13.132;2024-01-06T00:59:03;1.10;99.90
31307;DHT22;17935;51.120;13.132;2024-01-06T01:01:29;1.00;99.90
31307;DHT22;17935;51.120;13.132;2024-01-06T01:03:54;1.00;99.90
31307;DHT22;17935;51.120;13.132;2024-01-06T01:06:20;1.00;99.90
31307;DHT22;17935;51.120;13.132;2024-01-06T01:08:45;1.00;99.90
31307;DHT22;17935;51.120;13.132;2024-01-06T01:11:11;0.90;99.90
31307;DHT22;17935;51.120;13.132;2024-01-06T01:13:36;0.80;99.90
31307;DHT22;17935;51.120;13.132;2024-01-06T01:16:02;0.80;99.90
31307;DHT22;17935;51.120;13.132;2024-01-06T01:18:28;0.90;99.90
31307;DHT22;17935;51.120;13.132;2024-01-06T01:20:53;1.00;99.90
31307;DHT22;17935;51.120;13.132;2024-01-06T01:23:19;1.00;99.90
31307;DHT22;17935;51.120;13.132;2024-01-06T01:25:44;1.00;99.90
31307;DHT22;17935;51.120;13.132;2024-01-06T01:28:10;1.10;99.90
31307;DHT22;17935;51.120;13.132;2024-01-06T01:30:35;1.10;99.90
31307;DHT22;17935;51.120;13.132;2024-01-06T01:33:00;1.00;99.90
31307;DHT22;17935;51.120;13.132;2024-01-06T01:35:26;1.00;99.90
31307;DHT22;17935;51.120;13.132;2024-01-06T01:37:51;1.00;99.90
31307;DHT22;17935;51.120;13.132;2024-01-06T01:40:17;1.00;99.90
31307;DHT22;17935;51.120;13.132;2024-01-06T01:42:42;1.00;99.90
31307;DHT22;17935;51.120;13.132;2024-01-06T01:45:08;0.90;99.90
31307;DHT22;17935;51.120;13.132;2024-01-06T01:47:34;0.90;99.90
31307;DHT22;17935;51.120;13.132;2024-01-06T01:49:59;0.90;99.90
31307;DHT22;17935;51.120;13.132;2024-01-06T01:52:25;1.00;99.90
31307;DHT22;17935;51.120;13.132;2024-01-06T01:54:51;1.00;99.90
31307;DHT22;17935;51.120;13.132;2024-01-06T01:57:17;0.90;99.90
31307;DHT22;17935;51.120;13.132;2024-01-06T01:59:43;0.90;99.90
31307;DHT22;17935;51.120;13.132;2024-01-06T02:02:09;0.90;99.90
31307;DHT22;17935;51.120;13.132;2024-01-06T02:04:34;0.90;99.90
31307;DHT22;17935;51.120;13.132;2024-01-06T02:07:00;0.90;99.90
31307;DHT22;17935;51.120;13.132;2024-01-06T02:09:26;0.90;99.90
31307;DHT22;17935;51.120;13.132;2024-01-06T02:11:56;0.90;99.90
31307;DHT22;17935;51.120;13.132;2024-01-06T02:14:21;0.90;99.90
31307;DHT22;17935;51.120;13.132;2024-01-06T02:16:47;1.00;99.90
31307;DHT22;17935;51.120;13.132;2024-01-06T02:19:13;1.00;99.90
31307;DHT22;17935;51.120;13.132;2024-01-06T02:21:42;0.90;99.90
31307;DHT22;17935;51.120;13.132;2024-01-06T02:24:08;0.90;99.90
31307;DHT22;17935;51.120;13.132;2024-01-06T02:26:33;0.90;99.90
31307;DHT22;17935;51.120;13.132;2024-01-06T02:28:59;0.80;99.90
31307;DHT22;17935;51.120;13.132;2024-01-06T02:31:24;0.70;99.90
31307;DHT22;17935;51.120;13.132;2024-01-06T02:33:50;0.70;99.90
31307;DHT22;17935;51.120;13.132;2024-01-06T02:36:15;0.70;99.90
31307;DHT22;17935;51.120;13.132;2024-01-06T02:38:41;0.70;99.90
31307;DHT22;17935;51.120;13.132;2024-01-06T02:41:06;0.60;99.90
31307;DHT22;17935;51.120;13.132;2024-01-06T02:43:31;0.70;99.90
31307;DHT22;17935;51.120;13.132;2024-01-06T02:45:57;0.70;99.90
31307;DHT22;17935;51.120;13.132;2024-01-06T02:48:22;0.50;99.90
31307;DHT22;17935;51.120;13.132;2024-01-06T02:50:48;0.50;99.90
31307;DHT22;17935;51.120;13.132;2024-01-06T02:53:13;0.50;99.90
31307;DHT22;17935;51.120;13.132;2024-01-06T02:55:39;0.40;99.90
31307;DHT22;17935;51.120;13.132;2024-01-06T02:58:04;0.40;99.90
31307;DHT22;17935;51.120;13.132;2024-01-06T03:00:30;0.50;99.90
31307;DHT22;17935;51.120;13.132;2024-01-06T03:02:55;0.50;99.90
31307;DHT22;17935;51.120;13.132;2024-01-06T03:05:21;0.60;99.90
31307;DHT22;17935;51.120;13.132;2024-01-06T03:07:46;0.50;99.90
31307;DHT22;17935;51.120;13.132;2024-01-06T03:10:12;0.50;99.90
31307;DHT22;17935;51.120;13.132;2024-01-06T03:12:37;0.50;99.90
31307;DHT22;17935;51.120;13.132;2024-01-06T03:15:03;0.40;99.90
31307;DHT22;17935;51.120;13.132;2024-01-06T03:17:28;0.30;99.90
31307;DHT22;17935;51.120;13.132;2024-01-06T03:19:55;0.10;99.90
31307;DHT22;17935;51.120;13.132;2024-01-06T03:22:20;0.00;99.90
31307;DHT22;17935;51.120;13.132;2024-01-06T03:24:46;0.10;99.90
31307;DHT22;17935;51.120;13.132;2024-01-06T03:27:11;0.10;99.90
31307;DHT22;17935;51.120;13.132;2024-01-06T03:29:38;0.10;99.90
31307;DHT22;17935;51.120;13.132;2024-01-06T03:32:03;0.00;99.90
31307;DHT22;17935;51.120;13.132;2024-01-06T03:34:29;-0.20;99.90
31307;DHT22;17935;51.120;13.132;2024-01-06T03:36:54;-0.20;99.90
31307;DHT22;17935;51.120;13.132;2024-01-06T03:39:19;-0.30;99.90
31307;DHT22;17935;51.120;13.132;2024-01-06T03:41:45;-0.30;99.90
31307;DHT22;17935;51.120;13.132;2024-01-06T03:44:10;-0.30;99.90
31307;DHT22;17935;51.120;13.132;2024-01-06T03:46:36;-0.40;99.90
31307;DHT22;17935;51.120;13.132;2024-01-06T03:49:01;-0.40;99.90
31307;DHT22;17935;51.120;13.132;2024-01-06T03:51:27;-0.30;99.90
31307;DHT22;17935;51.120;13.132;2024-01-06T03:53:52;-0.20;99.90
31307;DHT22;17935;51.120;13.132;2024-01-06T03:56:18;-0.20;99.90
31307;DHT22;17935;51.120;13.132;2024-01-06T03:58:43;-0.20;99.90
31307;DHT22;17935;51.120;13.132;2024-01-06T04:01:09;-0.20;99.90
31307;DHT22;17935;51.120;13.132;2024-01-06T04:03:35;-0.20;99.90
31307;DHT22;17935;51.120;13.132;2024-01-06T04:06:00;-0.30;99.90
31307;DHT22;17935;51.120;13.132;2024-01-06T04:08:26;-0.30;99.90
31307;DHT22;17935;51.120;13.132;2024-01-06T04:10:51;-0.30;99.90
31307;DHT22;17935;51.120;13.132;2024-01-06T04:13:17;-0.40;99.90
31307;DHT22;17935;51.120;13.132;2024-01-06T04:15:42;-0.50;99.90
31307;DHT22;17935;51.120;13.132;2024-01-06T04:18:07;-0.50;99.90
31307;DHT22;17935;51.120;13.132;2024-01-06T04:20:34;-0.40;99.90
31307;DHT22;17935;51.120;13.132;2024-01-06T04:23:00;-0.20;99.90
31307;DHT22;17935;51.120;13.132;2024-01-06T04:25:25;0.10;99.90
31307;DHT22;17935;51.120;13.132;2024-01-06T04:27:51;0.30;99.90
31307;DHT22;17935;51.120;13.132;2024-01-06T04:30:16;0.50;99.90
31307;DHT22;17935;51.120;13.132;2024-01-06T04:32:42;0.60;99.90
31307;DHT22;17935;51.120;13.132;2024-01-06T04:35:08;0.60;99.90
31307;DHT22;17935;51.120;13.132;2024-01-06T04:37:33;0.70;99.90
31307;DHT22;17935;51.120;13.132;2024-01-06T04:39:59;0.70;99.90
31307;DHT22;17935;51.120;13.132;2024-01-06T04:42:24;0.70;99.90
31307;DHT22;17935;51.120;13.132;2024-01-06T04:44:50;0.60;99.90
31307;DHT22;17935;51.120;13.132;2024-01-06T04:47:16;0.70;99.90
31307;DHT22;17935;51.120;13.132;2024-01-06T04:49:41;0.80;99.90
31307;DHT22;17935;51.120;13.132;2024-01-06T04:52:07;0.80;99.90
31307;DHT22;17935;51.120;13.132;2024-01-06T04:54:32;0.80;99.90
31307;DHT22;17935;51.120;13.132;2024-01-06T04:56:58;0.80;99.90
31307;DHT22;17935;51.120;13.132;2024-01-06T04:59:24;0.70;99.90
31307;DHT22;17935;51.120;13.132;2024-01-06T05:01:49;0.70;99.90
31307;DHT22;17935;51.120;13.132;2024-01-06T05:04:16;0.70;99.90
31307;DHT22;17935;51.120;13.132;2024-01-06T05:06:41;0.70;99.90
31307;DHT22;17935;51.120;13.132;2024-01-06T05:09:07;0.70;99.90
31307;DHT22;17935;51.120;13.132;2024-01-06T05:11:32;0.80;99.90
31307;DHT22;17935;51.120;13.132;2024-01-06T05:13:58;0.90;99.90
31307;DHT22;17935;51.120;13.132;2024-01-06T05:16:23;0.90;99.90
31307;DHT22;17935;51.120;13.132;2024-01-06T05:18:49;0.90;99.90
31307;DHT22;17935;51.120;13.132;2024-01-06T05:21:14;0.90;99.90
31307;DHT22;17935;51.120;13.132;2024-01-06T05:23:40;0.90;99.90
31307;DHT22;17935;51.120;13.132;2024-01-06T05:26:05;0.90;99.90
31307;DHT22;17935;51.120;13.132;2024-01-06T05:28:31;0.90;99.90
31307;DHT22;17935;51.120;13.132;2024-01-06T05:30:56;1.00;99.90
31307;DHT22;17935;51.120;13.132;2024-01-06T05:33:22;1.00;99.90
31307;DHT22;17935;51.120;13.132;2024-01-06T05:35:47;1.10;99.90
31307;DHT22;17935;51.120;13.132;2024-01-06T05:38:13;1.20;99.90
31307;DHT22;17935;51.120;13.132;2024-01-06T05:40:38;1.20;99.90
31307;DHT22;17935;51.120;13.132;2024-01-06T05:43:04;1.30;99.90
31307;DHT22;17935;51.120;13.132;2024-01-06T05:45:29;1.40;99.90
31307;DHT22;17935;51.120;13.132;2024-01-06T05:47:55;1.50;99.90
31307;DHT22;17935;51.120;13.132;2024-01-06T05:50:20;1.50;99.90
31307;DHT22;17935;51.120;13.132;2024-01-06T05:52:45;1.50;99.90
31307;DHT22;17935;51.120;13.132;2024-01-06T05:55:13;1.40;99.90
31307;DHT22;17935;51.120;13.132;2024-01-06T05:57:39;1.50;99.90
31307;DHT22;17935;51.120;13.132;2024-01-06T06:00:07;1.50;99.90
31307;DHT22;17935;51.120;13.132;2024-01-06T06:02:33;1.50;99.90
31307;DHT22;17935;51.120;13.132;2024-01-06T06:04:58;1.50;99.90
31307;DHT22;17935;51.120;13.132;2024-01-06T06:07:24;1.50;99.90
31307;DHT22;17935;51.120;13.132;2024-01-06T06:09:49;1.50;99.90
31307;DHT22;17935;51.120;13.132;2024-01-06T06:12:15;1.50;99.90
31307;DHT22;17935;51.120;13.132;2024-01-06T06:14:40;1.50;99.90
31307;DHT22;17935;51.120;13.132;2024-01-06T06:17:07;1.50;99.90
31307;DHT22;17935;51.120;13.132;2024-01-06T06:19:32;1.50;99.90
31307;DHT22;17935;51.120;13.132;2024-01-06T06:21:58;1.50;99.90
31307;DHT22;17935;51.120;13.132;2024-01-06T06:24:23;1.60;99.90
31307;DHT22;17935;51.120;13.132;2024-01-06T06:26:49;1.70;99.90
31307;DHT22;17935;51.120;13.132;2024-01-06T06:29:14;1.70;99.90
31307;DHT22;17935;51.120;13.132;2024-01-06T06:31:39;1.70;99.90
31307;DHT22;17935;51.120;13.132;2024-01-06T06:34:05;1.80;99.90
31307;DHT22;17935;51.120;13.132;2024-01-06T06:36:30;1.80;99.90
31307;DHT22;17935;51.120;13.132;2024-01-06T06:38:56;1.80;99.90
31307;DHT22;17935;51.120;13.132;2024-01-06T06:41:24;1.80;99.90
31307;DHT22;17935;51.120;13.132;2024-01-06T06:43:49;1.80;99.90
31307;DHT22;17935;51.120;13.132;2024-01-06T06:46:14;1.80;99.90
31307;DHT22;17935;51.120;13.132;2024-01-06T06:48:40;1.70;99.90
31307;DHT22;17935;51.120;13.132;2024-01-06T06:51:06;1.70;99.90
31307;DHT22;17935;51.120;13.132;2024-01-06T06:53:31;1.60;99.90
31307;DHT22;17935;51.120;13.132;2024-01-06T06:55:56;1.50;99.90
31307;DHT22;17935;51.120;13.132;2024-01-06T06:58:22;1.50;99.90
31307;DHT22;17935;51.120;13.132;2024-01-06T07:00:47;1.60;99.90
31307;DHT22;17935;51.120;13.132;2024-01-06T07:03:13;1.60;99.90
31307;DHT22;17935;51.120;13.132;2024-01-06T07:05:39;1.60;99.90
31307;DHT22;17935;51.120;13.132;2024-01-06T07:08:04;1.70;99.90
31307;DHT22;17935;51.120;13.132;2024-01-06T07:10:30;1.70;99.90
31307;DHT22;17935;51.120;13.132;2024-01-06T07:12:55;1.70;99.90
31307;DHT22;17935;51.120;13.132;2024-01-06T07:15:21;1.80;99.90
31307;DHT22;17935;51.120;13.132;2024-01-06T07:17:47;1.80;99.90
31307;DHT22;17935;51.120;13.132;2024-01-06T07:20:12;1.80;99.90
31307;DHT22;17935;51.120;13.132;2024-01-06T07:22:37;1.80;99.90
31307;DHT22;17935;51.120;13.132;2024-01-06T07:25:03;1.90;99.90
31307;DHT22;17935;51.120;13.132;2024-01-06T07:27:29;1.90;99.90
31307;DHT22;17935;51.120;13.132;2024-01-06T07:29:54;1.80;99.90
31307;DHT22;17935;51.120;13.132;2024-01-06T07:32:21;1.80;99.90
31307;DHT22;17935;51.120;13.132;2024-01-06T07:34:47;1.90;99.90
31307;DHT22;17935;51.120;13.132;2024-01-06T07:37:13;1.90;99.90
31307;DHT22;17935;51.120;13.132;2024-01-06T07:39:38;2.00;99.90
31307;DHT22;17935;51.120;13.132;2024-01-06T07:42:04;2.10;99.90
31307;DHT22;17935;51.120;13.132;2024-01-06T07:44:29;2.10;99.90
31307;DHT22;17935;51.120;13.132;2024-01-06T07:46:54;2.20;99.90
31307;DHT22;17935;51.120;13.132;2024-01-06T07:49:20;2.30;99.90
31307;DHT22;17935;51.120;13.132;2024-01-06T07:51:45;2.40;99.90
31307;DHT22;17935;51.120;13.132;2024-01-06T07:54:11;2.40;99.90
31307;DHT22;17935;51.120;13.132;2024-01-06T07:56:37;2.40;99.90
31307;DHT22;17935;51.120;13.132;2024-01-06T07:59:03;2.40;99.90
31307;DHT22;17935;51.120;13.132;2024-01-06T08:01:28;2.40;99.90
31307;DHT22;17935;51.120;13.132;2024-01-06T08:03:53;2.30;99.90
31307;DHT22;17935;51.120;13.132;2024-01-06T08:06:19;2.30;99.90
31307;DHT22;17935;51.120;13.132;2024-01-06T08:08:44;2.30;99.90
31307;DHT22;17935;51.120;13.132;2024-01-06T08:11:11;2.30;99.90
31307;DHT22;17935;51.120;13.132;2024-01-06T08:13:37;2.20;99.90
31307;DHT22;17935;51.120;13.132;2024-01-06T08:16:02;2.30;99.90
31307;DHT22;17935;51.120;13.132;2024-01-06T08:18:28;2.20;99.90
31307;DHT22;17935;51.120;13.132;2024-01-06T08:20:53;2.30;99.90
31307;DHT22;17935;51.120;13.132;2024-01-06T08:23:19;2.40;99.90
31307;DHT22;17935;51.120;13.132;2024-01-06T08:25:45;2.60;99.90
31307;DHT22;17935;51.120;13.132;2024-01-06T08:28:11;2.80;99.90
31307;DHT22;17935;51.120;13.132;2024-01-06T08:30:37;3.10;99.90
31307;DHT22;17935;51.120;13.132;2024-01-06T08:33:02;3.20;99.90
31307;DHT22;17935;51.120;13.132;2024-01-06T08:35:28;3.30;99.90
31307;DHT22;17935;51.120;13.132;2024-01-06T08:37:55;3.40;99.90
31307;DHT22;17935;51.120;13.132;2024-01-06T08:40:23;3.60;99.90
31307;DHT22;17935;51.120;13.132;2024-01-06T08:42:49;3.80;99.90
31307;DHT22;17935;51.120;13.132;2024-01-06T08:45:14;4.20;99.90
31307;DHT22;17935;51.120;13.132;2024-01-06T08:47:40;4.60;99.90
31307;DHT22;17935;51.120;13.132;2024-01-06T08:50:06;4.80;99.90
31307;DHT22;17935;51.120;13.132;2024-01-06T08:52:31;4.90;99.90
31307;DHT22;17935;51.120;13.132;2024-01-06T08:54:57;4.90;99.90
31307;DHT22;17935;51.120;13.132;2024-01-06T08:57:23;4.80;99.90
31307;DHT22;17935;51.120;13.132;2024-01-06T08:59:48;4.70;99.90
31307;DHT22;17935;51.120;13.132;2024-01-06T09:02:13;4.70;99.90
31307;DHT22;17935;51.120;13.132;2024-01-06T09:04:39;4.70;99.90
31307;DHT22;17935;51.120;13.132;2024-01-06T09:07:04;4.90;99.90
31307;DHT22;17935;51.120;13.132;2024-01-06T09:09:30;5.00;99.90
31307;DHT22;17935;51.120;13.132;2024-01-06T09:11:56;5.00;99.90
31307;DHT22;17935;51.120;13.132;2024-01-06T09:14:21;5.00;99.90
31307;DHT22;17935;51.120;13.132;2024-01-06T09:16:47;5.10;99.90
31307;DHT22;17935;51.120;13.132;2024-01-06T09:19:12;5.20;99.90
31307;DHT22;17935;51.120;13.132;2024-01-06T09:21:38;5.30;99.90
31307;DHT22;17935;51.120;13.132;2024-01-06T09:24:03;5.30;99.90
31307;DHT22;17935;51.120;13.132;2024-01-06T09:26:32;5.40;99.90
31307;DHT22;17935;51.120;13.132;2024-01-06T09:28:57;5.40;99.90
31307;DHT22;17935;51.120;13.132;2024-01-06T09:31:22;5.50;99.90
31307;DHT22;17935;51.120;13.132;2024-01-06T09:33:49;5.60;99.90
31307;DHT22;17935;51.120;13.132;2024-01-06T09:36:15;5.60;99.90
31307;DHT22;17935;51.120;13.132;2024-01-06T09:38:40;5.60;99.90
31307;DHT22;17935;51.120;13.132;2024-01-06T09:41:06;5.70;99.90
31307;DHT22;17935;51.120;13.132;2024-01-06T09:43:32;5.70;99.90
31307;DHT22;17935;51.120;13.132;2024-01-06T09:46:02;5.70;99.90
31307;DHT22;17935;51.120;13.132;2024-01-06T09:48:29;5.60;99.90
31307;DHT22;17935;51.120;13.132;2024-01-06T09:50:56;5.50;99.90
31307;DHT22;17935;51.120;13.132;2024-01-06T09:53:23;5.60;99.90
31307;DHT22;17935;51.120;13.132;2024-01-06T09:55:48;5.70;99.90
31307;DHT22;17935;51.120;13.132;2024-01-06T09:58:17;5.70;99.90
31307;DHT22;17935;51.120;13.132;2024-01-06T10:00:43;5.70;99.90
31307;DHT22;17935;51.120;13.132;2024-01-06T10:03:08;5.90;99.90
31307;DHT22;17935;51.120;13.132;2024-01-06T10:05:35;6.10;99.90
31307;DHT22;17935;51.120;13.132;2024-01-06T10:08:01;6.30;99.90
31307;DHT22;17935;51.120;13.132;2024-01-06T10:10:29;6.40;99.90
31307;DHT22;17935;51.120;13.132;2024-01-06T10:12:54;6.40;99.90
31307;DHT22;17935;51.120;13.132;2024-01-06T10:15:20;6.50;99.90
31307;DHT22;17935;51.120;13.132;2024-01-06T10:17:46;6.70;99.90
31307;DHT22;17935;51.120;13.132;2024-01-06T10:20:12;6.60;99.90
31307;DHT22;17935;51.120;13.132;2024-01-06T10:22:38;6.70;99.90
31307;DHT22;17935;51.120;13.132;2024-01-06T10:25:08;6.70;99.90
31307;DHT22;17935;51.120;13.132;2024-01-06T10:27:35;6.80;99.90
31307;DHT22;17935;51.120;13.132;2024-01-06T10:30:01;6.80;99.90
31307;DHT22;17935;51.120;13.132;2024-01-06T10:32:26;7.00;99.90
31307;DHT22;17935;51.120;13.132;2024-01-06T10:34:54;7.00;99.90
31307;DHT22;17935;51.120;13.132;2024-01-06T10:37:20;7.00;99.90
31307;DHT22;17935;51.120;13.132;2024-01-06T10:39:45;7.20;99.90
31307;DHT22;17935;51.120;13.132;2024-01-06T10:42:11;7.20;99.90
31307;DHT22;17935;51.120;13.132;2024-01-06T10:44:37;7.30;99.90
31307;DHT22;17935;51.120;13.132;2024-01-06T10:47:05;7.40;99.90
31307;DHT22;17935;51.120;13.132;2024-01-06T10:49:31;7.60;99.90
31307;DHT22;17935;51.120;13.132;2024-01-06T10:51:58;7.70;99.90
31307;DHT22;17935;51.120;13.132;2024-01-06T10:54:24;7.70;99.90
31307;DHT22;17935;51.120;13.132;2024-01-06T10:56:49;7.60;99.90
31307;DHT22;17935;51.120;13.132;2024-01-06T10:59:16;7.60;99.90
31307;DHT22;17935;51.120;13.132;2024-01-06T11:01:43;7.40;99.90
31307;DHT22;17935;51.120;13.132;2024-01-06T11:04:09;7.30;99.90
31307;DHT22;17935;51.120;13.132;2024-01-06T11:06:36;7.30;99.90
31307;DHT22;17935;51.120;13.132;2024-01-06T11:09:11;7.10;99.90
31307;DHT22;17935;51.120;13.132;2024-01-06T11:14:37;7.00;99.90
31307;DHT22;17935;51.120;13.132;2024-01-06T11:17:03;7.00;99.90
31307;DHT22;17935;51.120;13.132;2024-01-06T11:24:48;6.90;99.90
31307;DHT22;17935;51.120;13.132;2024-01-06T11:27:20;6.80;99.90
31307;DHT22;17935;51.120;13.132;2024-01-06T11:29:54;6.90;99.90
31307;DHT22;17935;51.120;13.132;2024-01-06T11:34:52;7.10;99.90
31307;DHT22;17935;51.120;13.132;2024-01-06T11:37:19;7.10;99.90
31307;DHT22;17935;51.120;13.132;2024-01-06T11:39:48;7.20;99.90
31307;DHT22;17935;51.120;13.132;2024-01-06T11:42:28;7.20;99.90
31307;DHT22;17935;51.120;13.132;2024-01-06T11:45:19;7.10;99.90
31307;DHT22;17935;51.120;13.132;2024-01-06T11:47:54;6.80;99.90
31307;DHT22;17935;51.120;13.132;2024-01-06T11:50:26;6.70;99.90
31307;DHT22;17935;51.120;13.132;2024-01-06T11:52:55;6.60;99.90
31307;DHT22;17935;51.120;13.132;2024-01-06T11:55:26;6.60;99.90
31307;DHT22;17935;51.120;13.132;2024-01-06T12:08:43;6.70;99.90
31307;DHT22;17935;51.120;13.132;2024-01-06T12:11:18;6.70;99.90
31307;DHT22;17935;51.120;13.132;2024-01-06T12:16:27;6.80;99.90
31307;DHT22;17935;51.120;13.132;2024-01-06T12:22:01;6.80;99.90
31307;DHT22;17935;51.120;13.132;2024-01-06T12:24:27;6.60;99.90
31307;DHT22;17935;51.120;13.132;2024-01-06T12:26:55;6.60;99.90
31307;DHT22;17935;51.120;13.132;2024-01-06T12:29:22;6.40;99.90
31307;DHT22;17935;51.120;13.132;2024-01-06T12:31:48;6.30;99.90
31307;DHT22;17935;51.120;13.132;2024-01-06T12:34:16;6.40;99.90
31307;DHT22;17935;51.120;13.132;2024-01-06T12:36:50;6.30;99.90
31307;DHT22;17935;51.120;13.132;2024-01-06T12:39:20;6.30;99.90
31307;DHT22;17935;51.120;13.132;2024-01-06T12:41:46;6.20;99.90
31307;DHT22;17935;51.120;13.132;2024-01-06T12:47:11;6.10;99.90
31307;DHT22;17935;51.120;13.132;2024-01-06T12:49:51;6.10;99.90
31307;DHT22;17935;51.120;13.132;2024-01-06T12:52:24;6.00;99.90
31307;DHT22;17935;51.120;13.132;2024-01-06T12:55:20;5.90;99.90
31307;DHT22;17935;51.120;13.132;2024-01-06T12:57:49;5.70;99.90
31307;DHT22;17935;51.120;13.132;2024-01-06T13:00:15;5.50;99.90
31307;DHT22;17935;51.120;13.132;2024-01-06T13:02:41;5.50;99.90
31307;DHT22;17935;51.120;13.132;2024-01-06T13:05:07;5.40;99.90
31307;DHT22;17935;51.120;13.132;2024-01-06T13:07:34;5.30;99.90
31307;DHT22;17935;51.120;13.132;2024-01-06T13:10:00;5.30;99.90
31307;DHT22;17935;51.120;13.132;2024-01-06T13:12:26;5.20;99.90
31307;DHT22;17935;51.120;13.132;2024-01-06T13:14:54;5.20;99.90
31307;DHT22;17935;51.120;13.132;2024-01-06T13:17:20;5.20;99.90
31307;DHT22;17935;51.120;13.132;2024-01-06T13:19:45;5.20;99.90
31307;DHT22;17935;51.120;13.132;2024-01-06T13:22:11;5.10;99.90
31307;DHT22;17935;51.120;13.132;2024-01-06T13:24:38;5.00;99.90
31307;DHT22;17935;51.120;13.132;2024-01-06T13:27:06;5.00;99.90
31307;DHT22;17935;51.120;13.132;2024-01-06T13:29:31;5.00;99.90
31307;DHT22;17935;51.120;13.132;2024-01-06T13:31:57;5.00;99.90
31307;DHT22;17935;51.120;13.132;2024-01-06T13:34:24;4.90;99.90
31307;DHT22;17935;51.120;13.132;2024-01-06T13:36:50;4.90;99.90
31307;DHT22;17935;51.120;13.132;2024-01-06T13:39:15;4.90;99.90
31307;DHT22;17935;51.120;13.132;2024-01-06T13:45:14;5.00;99.90
31307;DHT22;17935;51.120;13.132;2024-01-06T13:47:40;4.80;99.90
31307;DHT22;17935;51.120;13.132;2024-01-06T13:50:43;4.80;99.90
31307;DHT22;17935;51.120;13.132;2024-01-06T13:53:19;4.60;99.90
31307;DHT22;17935;51.120;13.132;2024-01-06T13:56:05;4.50;99.90
31307;DHT22;17935;51.120;13.132;2024-01-06T14:01:56;4.40;99.90
31307;DHT22;17935;51.120;13.132;2024-01-06T14:07:37;4.30;99.90
31307;DHT22;17935;51.120;13.132;2024-01-06T14:10:12;4.40;99.90
31307;DHT22;17935;51.120;13.132;2024-01-06T14:12:59;4.30;99.90
31307;DHT22;17935;51.120;13.132;2024-01-06T14:15:42;4.20;99.90
31307;DHT22;17935;51.120;13.132;2024-01-06T14:18:21;4.20;99.90
31307;DHT22;17935;51.120;13.132;2024-01-06T14:20:53;4.10;99.90
31307;DHT22;17935;51.120;13.132;2024-01-06T14:23:21;4.10;99.90
31307;DHT22;17935;51.120;13.132;2024-01-06T14:25:46;4.00;99.90
31307;DHT22;17935;51.120;13.132;2024-01-06T14:28:12;3.90;99.90
31307;DHT22;17935;51.120;13.132;2024-01-06T14:30:38;3.90;99.90
31307;DHT22;17935;51.120;13.132;2024-01-06T14:33:04;3.90;99.90
31307;DHT22;17935;51.120;13.132;2024-01-06T14:35:29;3.80;99.90
31307;DHT22;17935;51.120;13.132;2024-01-06T14:37:55;3.80;99.90
31307;DHT22;17935;51.120;13.132;2024-01-06T14:40:24;3.80;99.90
31307;DHT22;17935;51.120;13.132;2024-01-06T14:42:50;3.70;99.90
31307;DHT22;17935;51.120;13.132;2024-01-06T14:45:15;3.70;99.90
31307;DHT22;17935;51.120;13.132;2024-01-06T14:47:41;3.70;99.90
31307;DHT22;17935;51.120;13.132;2024-01-06T14:50:07;3.60;99.90
31307;DHT22;17935;51.120;13.132;2024-01-06T14:52:35;3.60;99.90
31307;DHT22;17935;51.120;13.132;2024-01-06T14:55:01;3.70;99.90
31307;DHT22;17935;51.120;13.132;2024-01-06T14:57:26;3.70;99.90
31307;DHT22;17935;51.120;13.132;2024-01-06T15:00:05;3.70;99.90
31307;DHT22;17935;51.120;13.132;2024-01-06T15:02:54;3.60;99.90
31307;DHT22;17935;51.120;13.132;2024-01-06T15:05:20;3.50;99.90
31307;DHT22;17935;51.120;13.132;2024-01-06T15:28:28;3.20;99.90
31307;DHT22;17935;51.120;13.132;2024-01-06T15:30:54;3.20;99.90
31307;DHT22;17935;51.120;13.132;2024-01-06T15:33:20;3.20;99.90
31307;DHT22;17935;51.120;13.132;2024-01-06T15:35:45;3.10;99.90
31307;DHT22;17935;51.120;13.132;2024-01-06T15:38:11;3.10;99.90
31307;DHT22;17935;51.120;13.132;2024-01-06T15:40:36;3.10;99.90
31307;DHT22;17935;51.120;13.132;2024-01-06T15:43:01;3.00;99.90
31307;DHT22;17935;51.120;13.132;2024-01-06T15:45:27;3.00;99.90
31307;DHT22;17935;51.120;13.132;2024-01-06T15:47:52;3.00;99.90
31307;DHT22;17935;51.120;13.132;2024-01-06T15:50:18;2.90;99.90
31307;DHT22;17935;51.120;13.132;2024-01-06T15:52:43;2.90;99.90
31307;DHT22;17935;51.120;13.132;2024-01-06T15:55:11;2.90;99.90
31307;DHT22;17935;51.120;13.132;2024-01-06T15:57:37;2.90;99.90
31307;DHT22;17935;51.120;13.132;2024-01-06T16:00:04;2.80;99.90
31307;DHT22;17935;51.120;13.132;2024-01-06T16:02:29;2.80;99.90
31307;DHT22;17935;51.120;13.132;2024-01-06T16:04:55;2.80;99.90
31307;DHT22;17935;51.120;13.132;2024-01-06T16:07:20;2.70;99.90
31307;DHT22;17935;51.120;13.132;2024-01-06T16:09:48;2.70;99.90
31307;DHT22;17935;51.120;13.132;2024-01-06T16:12:13;2.70;99.90
31307;DHT22;17935;51.120;13.132;2024-01-06T16:14:40;2.70;99.90
31307;DHT22;17935;51.120;13.132;2024-01-06T16:17:05;2.70;99.90
31307;DHT22;17935;51.120;13.132;2024-01-06T16:19:31;2.70;99.90
31307;DHT22;17935;51.120;13.132;2024-01-06T16:22:00;2.70;99.90
31307;DHT22;17935;51.120;13.132;2024-01-06T16:24:25;2.70;99.90
31307;DHT22;17935;51.120;13.132;2024-01-06T16:26:53;2.70;99.90